Terminal Aerodrome Forecast
Issued by NWS

Home | Current Version | Previous Version | Text Only | Print | Product List | Glossary On
Versions: 1 2 3 4 5 6 7 8 9 10 11 12 13 14 15 16 17 18 19 20 21 22 23 24 25 26 27 28
000
FTUS42 TJSJ 240726 AAA
TAFNCM
TAF AMD
TNCM 240726Z 2407/2506 12014KT P6SM -SHRA BKN019 BKN035 BKN090
      TEMPO 2407/2410 16015G24KT 5SM TSRA BKN019CB BKN050 BKN100
     FM241400 18014KT P6SM VCSH SCT025 BKN060 BKN120=

USA.gov is the U.S. government's official web portal to all federal, state and local government web resources and services.